sensor_id;sensor_type;location;lat;lon;timestamp;temperature;humidity
18083;DHT22;9168;51.194;6.840;2022-12-10T00:02:11;1.10;99.90
18083;DHT22;9168;51.194;6.840;2022-12-10T00:04:39;1.10;99.90
18083;DHT22;9168;51.194;6.840;2022-12-10T00:07:06;1.00;99.90
18083;DHT22;9168;51.194;6.840;2022-12-10T00:09:33;1.00;99.90
18083;DHT22;9168;51.194;6.840;2022-12-10T00:12:00;0.90;99.90
18083;DHT22;9168;51.194;6.840;2022-12-10T00:14:26;0.90;99.90
18083;DHT22;9168;51.194;6.840;2022-12-10T00:16:53;0.90;99.90
18083;DHT22;9168;51.194;6.840;2022-12-10T00:19:20;0.80;99.90
18083;DHT22;9168;51.194;6.840;2022-12-10T00:21:48;0.80;99.90
18083;DHT22;9168;51.194;6.840;2022-12-10T00:24:15;0.80;99.90
18083;DHT22;9168;51.194;6.840;2022-12-10T00:26:42;0.70;99.90
18083;DHT22;9168;51.194;6.840;2022-12-10T00:29:12;0.70;99.90
18083;DHT22;9168;51.194;6.840;2022-12-10T00:31:39;0.70;99.90
18083;DHT22;9168;51.194;6.840;2022-12-10T00:34:08;0.70;99.90
18083;DHT22;9168;51.194;6.840;2022-12-10T00:36:37;0.60;99.90
18083;DHT22;9168;51.194;6.840;2022-12-10T00:39:06;0.60;99.90
18083;DHT22;9168;51.194;6.840;2022-12-10T00:41:33;0.60;99.90
18083;DHT22;9168;51.194;6.840;2022-12-10T00:44:00;0.50;99.90
18083;DHT22;9168;51.194;6.840;2022-12-10T00:46:28;0.50;99.90
18083;DHT22;9168;51.194;6.840;2022-12-10T00:48:55;0.50;99.90
18083;DHT22;9168;51.194;6.840;2022-12-10T00:51:23;0.50;99.90
18083;DHT22;9168;51.194;6.840;2022-12-10T00:53:53;0.50;99.90
18083;DHT22;9168;51.194;6.840;2022-12-10T00:56:23;0.50;99.90
18083;DHT22;9168;51.194;6.840;2022-12-10T00:58:50;0.50;99.90
18083;DHT22;9168;51.194;6.840;2022-12-10T01:01:20;0.50;99.90
18083;DHT22;9168;51.194;6.840;2022-12-10T01:03:49;0.50;99.90
18083;DHT22;9168;51.194;6.840;2022-12-10T01:06:18;0.50;99.90
18083;DHT22;9168;51.194;6.840;2022-12-10T01:08:47;0.50;99.90
18083;DHT22;9168;51.194;6.840;2022-12-10T01:11:16;0.50;99.90
18083;DHT22;9168;51.194;6.840;2022-12-10T01:13:45;0.50;99.90
18083;DHT22;9168;51.194;6.840;2022-12-10T01:16:14;0.50;99.90
18083;DHT22;9168;51.194;6.840;2022-12-10T01:18:43;0.50;99.90
18083;DHT22;9168;51.194;6.840;2022-12-10T01:21:11;0.40;99.90
18083;DHT22;9168;51.194;6.840;2022-12-10T01:23:40;0.40;99.90
18083;DHT22;9168;51.194;6.840;2022-12-10T01:26:09;0.40;99.90
18083;DHT22;9168;51.194;6.840;2022-12-10T01:28:38;0.30;99.90
18083;DHT22;9168;51.194;6.840;2022-12-10T01:31:08;0.30;99.90
18083;DHT22;9168;51.194;6.840;2022-12-10T01:33:35;0.30;99.90
18083;DHT22;9168;51.194;6.840;2022-12-10T01:36:04;0.40;99.90
18083;DHT22;9168;51.194;6.840;2022-12-10T01:38:32;0.30;99.90
18083;DHT22;9168;51.194;6.840;2022-12-10T01:40:59;0.30;99.90
18083;DHT22;9168;51.194;6.840;2022-12-10T01:43:26;0.30;99.90
18083;DHT22;9168;51.194;6.840;2022-12-10T01:45:53;0.30;99.90
18083;DHT22;9168;51.194;6.840;2022-12-10T01:48:22;0.20;99.90
18083;DHT22;9168;51.194;6.840;2022-12-10T01:50:48;0.20;99.90
18083;DHT22;9168;51.194;6.840;2022-12-10T01:53:15;0.20;99.90
18083;DHT22;9168;51.194;6.840;2022-12-10T01:55:46;0.20;99.90
18083;DHT22;9168;51.194;6.840;2022-12-10T01:58:15;0.20;99.90
18083;DHT22;9168;51.194;6.840;2022-12-10T02:00:48;0.20;99.90
18083;DHT22;9168;51.194;6.840;2022-12-10T02:03:20;0.20;99.90
18083;DHT22;9168;51.194;6.840;2022-12-10T02:06:00;0.20;99.90
18083;DHT22;9168;51.194;6.840;2022-12-10T02:08:35;0.10;99.90
18083;DHT22;9168;51.194;6.840;2022-12-10T02:11:14;0.20;99.90
18083;DHT22;9168;51.194;6.840;2022-12-10T02:13:44;0.20;99.90
18083;DHT22;9168;51.194;6.840;2022-12-10T02:16:16;0.20;99.90
18083;DHT22;9168;51.194;6.840;2022-12-10T02:18:49;0.20;99.90
18083;DHT22;9168;51.194;6.840;2022-12-10T02:21:22;0.20;99.90
18083;DHT22;9168;51.194;6.840;2022-12-10T02:23:54;0.30;99.90
18083;DHT22;9168;51.194;6.840;2022-12-10T02:26:27;0.30;99.90
18083;DHT22;9168;51.194;6.840;2022-12-10T02:29:07;0.40;99.90
18083;DHT22;9168;51.194;6.840;2022-12-10T02:31:39;0.40;99.90
18083;DHT22;9168;51.194;6.840;2022-12-10T02:34:07;0.40;99.90
18083;DHT22;9168;51.194;6.840;2022-12-10T02:36:38;0.50;99.90
18083;DHT22;9168;51.194;6.840;2022-12-10T02:39:26;0.50;99.90
18083;DHT22;9168;51.194;6.840;2022-12-10T02:41:55;0.40;99.90
18083;DHT22;9168;51.194;6.840;2022-12-10T02:44:25;0.40;99.90
18083;DHT22;9168;51.194;6.840;2022-12-10T02:46:54;0.50;99.90
18083;DHT22;9168;51.194;6.840;2022-12-10T02:49:22;0.50;99.90
18083;DHT22;9168;51.194;6.840;2022-12-10T02:51:50;0.60;99.90
18083;DHT22;9168;51.194;6.840;2022-12-10T02:54:36;0.60;99.90
18083;DHT22;9168;51.194;6.840;2022-12-10T02:57:10;0.50;99.90
18083;DHT22;9168;51.194;6.840;2022-12-10T02:59:51;0.60;99.90
18083;DHT22;9168;51.194;6.840;2022-12-10T03:02:24;0.60;99.90
18083;DHT22;9168;51.194;6.840;2022-12-10T03:04:58;0.60;99.90
18083;DHT22;9168;51.194;6.840;2022-12-10T03:07:32;0.60;99.90
18083;DHT22;9168;51.194;6.840;2022-12-10T03:10:02;0.70;99.90
18083;DHT22;9168;51.194;6.840;2022-12-10T03:12:33;0.80;99.90
18083;DHT22;9168;51.194;6.840;2022-12-10T03:15:07;0.80;99.90
18083;DHT22;9168;51.194;6.840;2022-12-10T03:17:36;0.90;99.90
18083;DHT22;9168;51.194;6.840;2022-12-10T03:20:06;0.90;99.90
18083;DHT22;9168;51.194;6.840;2022-12-10T03:22:36;1.00;99.90
18083;DHT22;9168;51.194;6.840;2022-12-10T03:25:04;1.00;99.90
18083;DHT22;9168;51.194;6.840;2022-12-10T03:27:32;1.00;99.90
18083;DHT22;9168;51.194;6.840;2022-12-10T03:30:00;1.00;99.90
18083;DHT22;9168;51.194;6.840;2022-12-10T03:32:29;1.10;99.90
18083;DHT22;9168;51.194;6.840;2022-12-10T03:34:57;1.10;99.90
18083;DHT22;9168;51.194;6.840;2022-12-10T03:37:27;1.10;99.90
18083;DHT22;9168;51.194;6.840;2022-12-10T03:39:55;1.20;99.90
18083;DHT22;9168;51.194;6.840;2022-12-10T03:42:22;1.10;99.90
18083;DHT22;9168;51.194;6.840;2022-12-10T03:44:50;1.20;99.90
18083;DHT22;9168;51.194;6.840;2022-12-10T03:47:18;1.20;99.90
18083;DHT22;9168;51.194;6.840;2022-12-10T03:49:47;1.20;99.90
18083;DHT22;9168;51.194;6.840;2022-12-10T03:52:14;1.30;99.90
18083;DHT22;9168;51.194;6.840;2022-12-10T03:54:41;1.30;99.90
18083;DHT22;9168;51.194;6.840;2022-12-10T03:57:08;1.30;99.90
18083;DHT22;9168;51.194;6.840;2022-12-10T03:59:35;1.30;99.90
18083;DHT22;9168;51.194;6.840;2022-12-10T04:02:01;1.30;99.90
18083;DHT22;9168;51.194;6.840;2022-12-10T04:04:28;1.30;99.90
18083;DHT22;9168;51.194;6.840;2022-12-10T04:06:57;1.30;99.90
18083;DHT22;9168;51.194;6.840;2022-12-10T04:09:24;1.40;99.90
18083;DHT22;9168;51.194;6.840;2022-12-10T04:11:55;1.40;99.90
18083;DHT22;9168;51.194;6.840;2022-12-10T04:14:22;1.40;99.90
18083;DHT22;9168;51.194;6.840;2022-12-10T04:17:07;1.50;99.90
18083;DHT22;9168;51.194;6.840;2022-12-10T04:19:34;1.40;99.90
18083;DHT22;9168;51.194;6.840;2022-12-10T04:22:03;1.40;99.90
18083;DHT22;9168;51.194;6.840;2022-12-10T04:24:47;1.40;99.90
18083;DHT22;9168;51.194;6.840;2022-12-10T04:27:47;1.50;99.90
18083;DHT22;9168;51.194;6.840;2022-12-10T04:30:14;1.50;99.90
18083;DHT22;9168;51.194;6.840;2022-12-10T04:32:41;1.50;99.90
18083;DHT22;9168;51.194;6.840;2022-12-10T04:35:08;1.50;99.90
18083;DHT22;9168;51.194;6.840;2022-12-10T04:37:37;1.60;99.90
18083;DHT22;9168;51.194;6.840;2022-12-10T04:40:04;1.60;99.90
18083;DHT22;9168;51.194;6.840;2022-12-10T04:42:32;1.60;99.90
18083;DHT22;9168;51.194;6.840;2022-12-10T04:44:58;1.60;99.90
18083;DHT22;9168;51.194;6.840;2022-12-10T04:47:25;1.70;99.90
18083;DHT22;9168;51.194;6.840;2022-12-10T04:49:52;1.60;99.90
18083;DHT22;9168;51.194;6.840;2022-12-10T04:52:19;1.60;99.90
18083;DHT22;9168;51.194;6.840;2022-12-10T04:54:47;1.60;99.90
18083;DHT22;9168;51.194;6.840;2022-12-10T04:57:14;1.60;99.90
18083;DHT22;9168;51.194;6.840;2022-12-10T04:59:41;1.50;99.90
18083;DHT22;9168;51.194;6.840;2022-12-10T05:02:08;1.50;99.90
18083;DHT22;9168;51.194;6.840;2022-12-10T05:04:36;1.50;99.90
18083;DHT22;9168;51.194;6.840;2022-12-10T05:07:03;1.50;99.90
18083;DHT22;9168;51.194;6.840;2022-12-10T05:09:30;1.50;99.90
18083;DHT22;9168;51.194;6.840;2022-12-10T05:11:58;1.60;99.90
18083;DHT22;9168;51.194;6.840;2022-12-10T05:14:25;1.50;99.90
18083;DHT22;9168;51.194;6.840;2022-12-10T05:16:52;1.50;99.90
18083;DHT22;9168;51.194;6.840;2022-12-10T05:19:19;1.50;99.90
18083;DHT22;9168;51.194;6.840;2022-12-10T05:21:47;1.50;99.90
18083;DHT22;9168;51.194;6.840;2022-12-10T05:24:32;1.60;99.90
18083;DHT22;9168;51.194;6.840;2022-12-10T05:27:00;1.70;99.90
18083;DHT22;9168;51.194;6.840;2022-12-10T05:29:28;1.70;99.90
18083;DHT22;9168;51.194;6.840;2022-12-10T05:31:55;1.60;99.90
18083;DHT22;9168;51.194;6.840;2022-12-10T05:34:22;1.60;99.90
18083;DHT22;9168;51.194;6.840;2022-12-10T05:36:49;1.50;99.90
18083;DHT22;9168;51.194;6.840;2022-12-10T05:39:16;1.60;99.90
18083;DHT22;9168;51.194;6.840;2022-12-10T05:41:42;1.60;99.90
18083;DHT22;9168;51.194;6.840;2022-12-10T05:44:12;1.60;99.90
18083;DHT22;9168;51.194;6.840;2022-12-10T05:46:39;1.60;99.90
18083;DHT22;9168;51.194;6.840;2022-12-10T05:49:07;1.60;99.90
18083;DHT22;9168;51.194;6.840;2022-12-10T05:51:36;1.60;99.90
18083;DHT22;9168;51.194;6.840;2022-12-10T05:54:05;1.60;99.90
18083;DHT22;9168;51.194;6.840;2022-12-10T05:56:32;1.60;99.90
18083;DHT22;9168;51.194;6.840;2022-12-10T05:59:02;1.60;99.90
18083;DHT22;9168;51.194;6.840;2022-12-10T06:01:32;1.60;99.90
18083;DHT22;9168;51.194;6.840;2022-12-10T06:04:00;1.50;99.90
18083;DHT22;9168;51.194;6.840;2022-12-10T06:06:29;1.50;99.90
18083;DHT22;9168;51.194;6.840;2022-12-10T06:08:57;1.50;99.90
18083;DHT22;9168;51.194;6.840;2022-12-10T06:11:25;1.50;99.90
18083;DHT22;9168;51.194;6.840;2022-12-10T06:13:52;1.40;99.90
18083;DHT22;9168;51.194;6.840;2022-12-10T06:16:20;1.40;99.90
18083;DHT22;9168;51.194;6.840;2022-12-10T06:18:48;1.40;99.90
18083;DHT22;9168;51.194;6.840;2022-12-10T06:21:16;1.50;99.90
18083;DHT22;9168;51.194;6.840;2022-12-10T06:23:44;1.50;99.90
18083;DHT22;9168;51.194;6.840;2022-12-10T06:26:13;1.50;99.90
18083;DHT22;9168;51.194;6.840;2022-12-10T06:28:41;1.50;99.90
18083;DHT22;9168;51.194;6.840;2022-12-10T06:31:08;1.50;99.90
18083;DHT22;9168;51.194;6.840;2022-12-10T06:33:35;1.50;99.90
18083;DHT22;9168;51.194;6.840;2022-12-10T06:36:05;1.60;99.90
18083;DHT22;9168;51.194;6.840;2022-12-10T06:38:33;1.50;99.90
18083;DHT22;9168;51.194;6.840;2022-12-10T06:41:01;1.50;99.90
18083;DHT22;9168;51.194;6.840;2022-12-10T06:43:30;1.50;99.90
18083;DHT22;9168;51.194;6.840;2022-12-10T06:45:57;1.50;99.90
18083;DHT22;9168;51.194;6.840;2022-12-10T06:48:24;1.50;99.90
18083;DHT22;9168;51.194;6.840;2022-12-10T06:50:50;1.40;99.90
18083;DHT22;9168;51.194;6.840;2022-12-10T06:53:19;1.40;99.90
18083;DHT22;9168;51.194;6.840;2022-12-10T06:55:46;1.40;99.90
18083;DHT22;9168;51.194;6.840;2022-12-10T06:58:13;1.40;99.90
18083;DHT22;9168;51.194;6.840;2022-12-10T07:00:40;1.40;99.90
18083;DHT22;9168;51.194;6.840;2022-12-10T07:03:07;1.50;99.90
18083;DHT22;9168;51.194;6.840;2022-12-10T07:05:34;1.50;99.90
18083;DHT22;9168;51.194;6.840;2022-12-10T07:08:01;1.50;99.90
18083;DHT22;9168;51.194;6.840;2022-12-10T07:10:29;1.50;99.90
18083;DHT22;9168;51.194;6.840;2022-12-10T07:12:56;1.50;99.90
18083;DHT22;9168;51.194;6.840;2022-12-10T07:15:23;1.40;99.90
18083;DHT22;9168;51.194;6.840;2022-12-10T07:17:52;1.50;99.90
18083;DHT22;9168;51.194;6.840;2022-12-10T07:20:19;1.50;99.90
18083;DHT22;9168;51.194;6.840;2022-12-10T07:22:46;1.50;99.90
18083;DHT22;9168;51.194;6.840;2022-12-10T07:25:13;1.50;99.90
18083;DHT22;9168;51.194;6.840;2022-12-10T07:27:41;1.50;99.90
18083;DHT22;9168;51.194;6.840;2022-12-10T07:30:09;1.50;99.90
18083;DHT22;9168;51.194;6.840;2022-12-10T07:32:36;1.50;99.90
18083;DHT22;9168;51.194;6.840;2022-12-10T07:35:21;1.50;99.90
18083;DHT22;9168;51.194;6.840;2022-12-10T07:37:48;1.50;99.90
18083;DHT22;9168;51.194;6.840;2022-12-10T07:40:15;1.50;99.90
18083;DHT22;9168;51.194;6.840;2022-12-10T07:42:43;1.50;99.90
18083;DHT22;9168;51.194;6.840;2022-12-10T07:45:15;1.50;99.90
18083;DHT22;9168;51.194;6.840;2022-12-10T07:47:42;1.50;99.90
18083;DHT22;9168;51.194;6.840;2022-12-10T07:50:09;1.50;99.90
18083;DHT22;9168;51.194;6.840;2022-12-10T07:52:36;1.50;99.90
18083;DHT22;9168;51.194;6.840;2022-12-10T07:55:03;1.50;99.90
18083;DHT22;9168;51.194;6.840;2022-12-10T07:57:31;1.50;99.90
18083;DHT22;9168;51.194;6.840;2022-12-10T07:59:59;1.40;99.90
18083;DHT22;9168;51.194;6.840;2022-12-10T08:02:26;1.40;99.90
18083;DHT22;9168;51.194;6.840;2022-12-10T08:04:53;1.40;99.90
18083;DHT22;9168;51.194;6.840;2022-12-10T08:07:20;1.40;99.90
18083;DHT22;9168;51.194;6.840;2022-12-10T08:09:47;1.40;99.90
18083;DHT22;9168;51.194;6.840;2022-12-10T08:12:14;1.40;99.90
18083;DHT22;9168;51.194;6.840;2022-12-10T08:14:41;1.30;99.90
18083;DHT22;9168;51.194;6.840;2022-12-10T08:17:09;1.30;99.90
18083;DHT22;9168;51.194;6.840;2022-12-10T08:19:36;1.30;99.90
18083;DHT22;9168;51.194;6.840;2022-12-10T08:22:03;1.30;99.90
18083;DHT22;9168;51.194;6.840;2022-12-10T08:24:30;1.30;99.90
18083;DHT22;9168;51.194;6.840;2022-12-10T08:26:57;1.30;99.90
18083;DHT22;9168;51.194;6.840;2022-12-10T08:29:24;1.40;99.90
18083;DHT22;9168;51.194;6.840;2022-12-10T08:31:51;1.40;99.90
18083;DHT22;9168;51.194;6.840;2022-12-10T08:34:19;1.30;99.90
18083;DHT22;9168;51.194;6.840;2022-12-10T08:36:46;1.30;99.90
18083;DHT22;9168;51.194;6.840;2022-12-10T08:39:13;1.40;99.90
18083;DHT22;9168;51.194;6.840;2022-12-10T08:41:40;1.30;99.90
18083;DHT22;9168;51.194;6.840;2022-12-10T08:44:07;1.30;99.90
18083;DHT22;9168;51.194;6.840;2022-12-10T08:46:34;1.30;99.90
18083;DHT22;9168;51.194;6.840;2022-12-10T08:49:01;1.30;99.90
18083;DHT22;9168;51.194;6.840;2022-12-10T08:51:30;1.30;99.90
18083;DHT22;9168;51.194;6.840;2022-12-10T08:53:57;1.20;99.90
18083;DHT22;9168;51.194;6.840;2022-12-10T08:56:24;1.20;99.90
18083;DHT22;9168;51.194;6.840;2022-12-10T08:58:50;1.30;99.90
18083;DHT22;9168;51.194;6.840;2022-12-10T09:01:18;1.30;99.90
18083;DHT22;9168;51.194;6.840;2022-12-10T09:03:45;1.30;99.90
18083;DHT22;9168;51.194;6.840;2022-12-10T09:06:14;1.30;99.90
18083;DHT22;9168;51.194;6.840;2022-12-10T09:08:42;1.30;99.90
18083;DHT22;9168;51.194;6.840;2022-12-10T09:11:11;1.20;99.90
18083;DHT22;9168;51.194;6.840;2022-12-10T09:13:38;1.20;99.90
18083;DHT22;9168;51.194;6.840;2022-12-10T09:16:09;1.30;99.90
18083;DHT22;9168;51.194;6.840;2022-12-10T09:18:36;1.30;99.90
18083;DHT22;9168;51.194;6.840;2022-12-10T09:21:05;1.30;99.90
18083;DHT22;9168;51.194;6.840;2022-12-10T09:23:32;1.30;99.90
18083;DHT22;9168;51.194;6.840;2022-12-10T09:26:06;1.30;99.90
18083;DHT22;9168;51.194;6.840;2022-12-10T09:28:33;1.30;99.90
18083;DHT22;9168;51.194;6.840;2022-12-10T09:31:01;1.30;99.90
18083;DHT22;9168;51.194;6.840;2022-12-10T09:33:29;1.20;99.90
18083;DHT22;9168;51.194;6.840;2022-12-10T09:35:58;1.20;99.90
18083;DHT22;9168;51.194;6.840;2022-12-10T09:38:26;1.20;99.90
18083;DHT22;9168;51.194;6.840;2022-12-10T09:40:59;1.20;99.90
18083;DHT22;9168;51.194;6.840;2022-12-10T09:43:36;1.20;99.90
18083;DHT22;9168;51.194;6.840;2022-12-10T09:46:16;1.30;99.90
18083;DHT22;9168;51.194;6.840;2022-12-10T09:48:54;1.30;99.90
18083;DHT22;9168;51.194;6.840;2022-12-10T09:51:24;1.20;99.90
18083;DHT22;9168;51.194;6.840;2022-12-10T09:53:53;1.20;99.90
18083;DHT22;9168;51.194;6.840;2022-12-10T09:56:26;1.30;99.90
18083;DHT22;9168;51.194;6.840;2022-12-10T09:58:57;1.30;99.90
18083;DHT22;9168;51.194;6.840;2022-12-10T10:01:27;1.40;99.90
18083;DHT22;9168;51.194;6.840;2022-12-10T10:03:55;1.50;99.90
18083;DHT22;9168;51.194;6.840;2022-12-10T10:06:24;1.50;99.90
18083;DHT22;9168;51.194;6.840;2022-12-10T10:08:54;1.50;99.90
18083;DHT22;9168;51.194;6.840;2022-12-10T10:11:23;1.40;99.90
18083;DHT22;9168;51.194;6.840;2022-12-10T10:13:53;1.40;99.90
18083;DHT22;9168;51.194;6.840;2022-12-10T10:16:25;1.40;99.90
18083;DHT22;9168;51.194;6.840;2022-12-10T10:18:56;1.40;99.90
18083;DHT22;9168;51.194;6.840;2022-12-10T10:21:26;1.40;99.90
18083;DHT22;9168;51.194;6.840;2022-12-10T10:23:55;1.50;99.90
18083;DHT22;9168;51.194;6.840;2022-12-10T10:26:24;1.50;99.90
18083;DHT22;9168;51.194;6.840;2022-12-10T10:28:56;1.60;99.90
18083;DHT22;9168;51.194;6.840;2022-12-10T10:31:27;1.60;99.90
18083;DHT22;9168;51.194;6.840;2022-12-10T10:33:56;1.70;99.90
18083;DHT22;9168;51.194;6.840;2022-12-10T10:36:25;1.70;99.90
18083;DHT22;9168;51.194;6.840;2022-12-10T10:38:52;1.70;99.90
18083;DHT22;9168;51.194;6.840;2022-12-10T10:41:20;1.80;99.90
18083;DHT22;9168;51.194;6.840;2022-12-10T10:43:47;1.90;99.90
18083;DHT22;9168;51.194;6.840;2022-12-10T10:46:17;1.90;99.90
18083;DHT22;9168;51.194;6.840;2022-12-10T10:48:51;1.80;99.90
18083;DHT22;9168;51.194;6.840;2022-12-10T10:51:20;1.70;99.90
18083;DHT22;9168;51.194;6.840;2022-12-10T10:53:49;1.60;99.90
18083;DHT22;9168;51.194;6.840;2022-12-10T10:56:20;1.70;99.90
18083;DHT22;9168;51.194;6.840;2022-12-10T10:58:53;1.70;99.90
18083;DHT22;9168;51.194;6.840;2022-12-10T11:01:23;1.80;99.90
18083;DHT22;9168;51.194;6.840;2022-12-10T11:03:54;1.80;99.90
18083;DHT22;9168;51.194;6.840;2022-12-10T11:06:22;1.80;99.90
18083;DHT22;9168;51.194;6.840;2022-12-10T11:08:57;1.80;99.90
18083;DHT22;9168;51.194;6.840;2022-12-10T11:11:31;1.80;99.90
18083;DHT22;9168;51.194;6.840;2022-12-10T11:14:13;1.90;99.90
18083;DHT22;9168;51.194;6.840;2022-12-10T11:16:41;1.90;99.90
18083;DHT22;9168;51.194;6.840;2022-12-10T11:19:19;1.90;99.90
18083;DHT22;9168;51.194;6.840;2022-12-10T11:21:47;2.00;99.90
18083;DHT22;9168;51.194;6.840;2022-12-10T11:24:18;2.00;99.90
18083;DHT22;9168;51.194;6.840;2022-12-10T11:26:58;2.10;99.90
18083;DHT22;9168;51.194;6.840;2022-12-10T11:29:41;2.10;99.90
18083;DHT22;9168;51.194;6.840;2022-12-10T11:32:20;2.20;99.90
18083;DHT22;9168;51.194;6.840;2022-12-10T11:35:07;2.20;99.90
18083;DHT22;9168;51.194;6.840;2022-12-10T11:37:39;2.20;99.90
18083;DHT22;9168;51.194;6.840;2022-12-10T11:40:19;2.20;99.90
18083;DHT22;9168;51.194;6.840;2022-12-10T11:42:58;2.20;99.90
18083;DHT22;9168;51.194;6.840;2022-12-10T11:45:31;2.10;99.90
18083;DHT22;9168;51.194;6.840;2022-12-10T11:48:15;2.10;99.90
18083;DHT22;9168;51.194;6.840;2022-12-10T11:50:49;2.00;99.90
18083;DHT22;9168;51.194;6.840;2022-12-10T11:53:33;2.10;99.90
18083;DHT22;9168;51.194;6.840;2022-12-10T11:56:12;2.10;99.90
18083;DHT22;9168;51.194;6.840;2022-12-10T11:58:57;2.10;99.90
18083;DHT22;9168;51.194;6.840;2022-12-10T12:01:34;2.00;99.90
18083;DHT22;9168;51.194;6.840;2022-12-10T12:04:16;2.00;99.90
18083;DHT22;9168;51.194;6.840;2022-12-10T12:07:03;2.10;99.90
18083;DHT22;9168;51.194;6.840;2022-12-10T12:09:40;2.10;99.90
18083;DHT22;9168;51.194;6.840;2022-12-10T12:12:20;2.10;99.90
18083;DHT22;9168;51.194;6.840;2022-12-10T12:14:54;2.10;99.90
18083;DHT22;9168;51.194;6.840;2022-12-10T12:17:25;2.10;99.90
18083;DHT22;9168;51.194;6.840;2022-12-10T12:19:56;2.20;99.90
18083;DHT22;9168;51.194;6.840;2022-12-10T12:22:27;2.10;99.90
18083;DHT22;9168;51.194;6.840;2022-12-10T12:24:59;2.20;99.90
18083;DHT22;9168;51.194;6.840;2022-12-10T12:27:30;2.20;99.90
18083;DHT22;9168;51.194;6.840;2022-12-10T12:30:05;2.20;99.90
18083;DHT22;9168;51.194;6.840;2022-12-10T12:32:43;2.20;99.90
18083;DHT22;9168;51.194;6.840;2022-12-10T12:35:16;2.30;99.90
18083;DHT22;9168;51.194;6.840;2022-12-10T12:37:49;2.30;99.90
18083;DHT22;9168;51.194;6.840;2022-12-10T12:40:27;2.30;99.90
18083;DHT22;9168;51.194;6.840;2022-12-10T12:42:58;2.30;99.90
18083;DHT22;9168;51.194;6.840;2022-12-10T12:45:33;2.30;99.90
18083;DHT22;9168;51.194;6.840;2022-12-10T12:48:11;2.40;99.90
18083;DHT22;9168;51.194;6.840;2022-12-10T12:50:43;2.40;99.90
18083;DHT22;9168;51.194;6.840;2022-12-10T12:53:14;2.40;99.90
18083;DHT22;9168;51.194;6.840;2022-12-10T12:55:49;2.40;99.90
18083;DHT22;9168;51.194;6.840;2022-12-10T12:58:25;2.30;99.90
18083;DHT22;9168;51.194;6.840;2022-12-10T13:00:57;2.30;99.90
18083;DHT22;9168;51.194;6.840;2022-12-10T13:03:33;2.40;99.90
18083;DHT22;9168;51.194;6.840;2022-12-10T13:06:28;2.40;99.90
18083;DHT22;9168;51.194;6.840;2022-12-10T13:09:18;2.40;99.90
18083;DHT22;9168;51.194;6.840;2022-12-10T13:15:02;2.30;99.90
18083;DHT22;9168;51.194;6.840;2022-12-10T13:17:32;2.30;99.90
18083;DHT22;9168;51.194;6.840;2022-12-10T13:20:28;2.30;99.90
18083;DHT22;9168;51.194;6.840;2022-12-10T13:22:57;2.20;99.90
18083;DHT22;9168;51.194;6.840;2022-12-10T13:25:40;2.20;99.90
18083;DHT22;9168;51.194;6.840;2022-12-10T13:28:21;2.20;99.90
18083;DHT22;9168;51.194;6.840;2022-12-10T13:31:08;2.30;99.90
18083;DHT22;9168;51.194;6.840;2022-12-10T13:33:48;2.20;99.90
18083;DHT22;9168;51.194;6.840;2022-12-10T13:36:33;2.20;99.90
18083;DHT22;9168;51.194;6.840;2022-12-10T13:39:21;2.20;99.90
18083;DHT22;9168;51.194;6.840;2022-12-10T13:45:33;2.10;99.90
18083;DHT22;9168;51.194;6.840;2022-12-10T13:48:26;2.10;99.90
18083;DHT22;9168;51.194;6.840;2022-12-10T13:53:57;2.10;99.90
18083;DHT22;9168;51.194;6.840;2022-12-10T13:56:28;2.20;99.90
18083;DHT22;9168;51.194;6.840;2022-12-10T13:59:06;2.30;99.90
18083;DHT22;9168;51.194;6.840;2022-12-10T14:01:44;2.30;99.90
18083;DHT22;9168;51.194;6.840;2022-12-10T14:04:42;2.20;99.90
18083;DHT22;9168;51.194;6.840;2022-12-10T14:07:14;2.30;99.90
18083;DHT22;9168;51.194;6.840;2022-12-10T14:09:46;2.30;99.90
18083;DHT22;9168;51.194;6.840;2022-12-10T14:12:17;2.30;99.90
18083;DHT22;9168;51.194;6.840;2022-12-10T14:14:54;2.30;99.90
18083;DHT22;9168;51.194;6.840;2022-12-10T14:17:30;2.30;99.90
18083;DHT22;9168;51.194;6.840;2022-12-10T14:20:00;2.30;99.90
18083;DHT22;9168;51.194;6.840;2022-12-10T14:22:31;2.20;99.90
18083;DHT22;9168;51.194;6.840;2022-12-10T14:25:01;2.20;99.90
18083;DHT22;9168;51.194;6.840;2022-12-10T14:27:29;2.20;99.90
18083;DHT22;9168;51.194;6.840;2022-12-10T14:30:00;2.30;99.90
18083;DHT22;9168;51.194;6.840;2022-12-10T14:32:32;2.30;99.90
18083;DHT22;9168;51.194;6.840;2022-12-10T14:35:00;2.30;99.90
18083;DHT22;9168;51.194;6.840;2022-12-10T14:37:29;2.30;99.90
18083;DHT22;9168;51.194;6.840;2022-12-10T14:39:57;2.30;99.90
18083;DHT22;9168;51.194;6.840;2022-12-10T14:42:24;2.40;99.90
18083;DHT22;9168;51.194;6.840;2022-12-10T14:44:56;2.40;99.90
18083;DHT22;9168;51.194;6.840;2022-12-10T14:47:23;2.50;99.90
18083;DHT22;9168;51.194;6.840;2022-12-10T14:49:54;2.40;99.90
18083;DHT22;9168;51.194;6.840;2022-12-10T14:52:23;2.40;99.90
18083;DHT22;9168;51.194;6.840;2022-12-10T14:54:52;2.40;99.90
18083;DHT22;9168;51.194;6.840;2022-12-10T14:57:22;2.30;99.90
18083;DHT22;9168;51.194;6.840;2022-12-10T14:59:57;2.30;99.90
18083;DHT22;9168;51.194;6.840;2022-12-10T15:02:28;2.30;99.90
18083;DHT22;9168;51.194;6.840;2022-12-10T15:04:57;2.40;99.90
18083;DHT22;9168;51.194;6.840;2022-12-10T15:07:27;2.30;99.90
18083;DHT22;9168;51.194;6.840;2022-12-10T15:09:54;2.30;99.90
18083;DHT22;9168;51.194;6.840;2022-12-10T15:12:31;2.30;99.90
18083;DHT22;9168;51.194;6.840;2022-12-10T15:15:04;2.20;99.90
18083;DHT22;9168;51.194;6.840;2022-12-10T15:17:36;2.20;99.90
18083;DHT22;9168;51.194;6.840;2022-12-10T15:20:25;2.20;99.90
18083;DHT22;9168;51.194;6.840;2022-12-10T15:22:53;2.30;99.90
18083;DHT22;9168;51.194;6.840;2022-12-10T15:25:26;2.30;99.90
18083;DHT22;9168;51.194;6.840;2022-12-10T15:27:56;2.30;99.90
18083;DHT22;9168;51.194;6.840;2022-12-10T15:30:28;2.20;99.90
18083;DHT22;9168;51.194;6.840;2022-12-10T15:32:58;2.20;99.90
18083;DHT22;9168;51.194;6.840;2022-12-10T15:35:26;2.20;99.90
18083;DHT22;9168;51.194;6.840;2022-12-10T15:37:54;2.30;99.90
18083;DHT22;9168;51.194;6.840;2022-12-10T15:40:27;2.30;99.90
18083;DHT22;9168;51.194;6.840;2022-12-10T15:42:57;2.30;99.90
18083;DHT22;9168;51.194;6.840;2022-12-10T15:45:40;2.30;99.90
18083;DHT22;9168;51.194;6.840;2022-12-10T15:48:09;2.30;99.90
18083;DHT22;9168;51.194;6.840;2022-12-10T15:50:39;2.20;99.90
18083;DHT22;9168;51.194;6.840;2022-12-10T15:53:09;2.20;99.90
18083;DHT22;9168;51.194;6.840;2022-12-10T15:55:36;2.10;99.90
18083;DHT22;9168;51.194;6.840;2022-12-10T15:58:08;2.10;99.90
18083;DHT22;9168;51.194;6.840;2022-12-10T16:00:35;2.10;99.90
18083;DHT22;9168;51.194;6.840;2022-12-10T16:03:04;2.10;99.90
18083;DHT22;9168;51.194;6.840;2022-12-10T16:05:32;2.10;99.90
18083;DHT22;9168;51.194;6.840;2022-12-10T16:08:06;2.10;99.90
18083;DHT22;9168;51.194;6.840;2022-12-10T16:10:36;2.10;99.90
18083;DHT22;9168;51.194;6.840;2022-12-10T16:13:05;2.10;99.90
18083;DHT22;9168;51.194;6.840;2022-12-10T16:15:35;2.20;99.90
18083;DHT22;9168;51.194;6.840;2022-12-10T16:18:09;2.20;99.90
18083;DHT22;9168;51.194;6.840;2022-12-10T16:20:37;2.20;99.90
18083;DHT22;9168;51.194;6.840;2022-12-10T16:23:06;2.20;99.90
18083;DHT22;9168;51.194;6.840;2022-12-10T16:25:33;2.20;99.90
18083;DHT22;9168;51.194;6.840;2022-12-10T16:28:01;2.30;99.90
18083;DHT22;9168;51.194;6.840;2022-12-10T16:30:33;2.20;99.90
18083;DHT22;9168;51.194;6.840;2022-12-10T16:33:01;2.30;99.90
18083;DHT22;9168;51.194;6.840;2022-12-10T16:35:28;2.30;99.90